createdAt,value
2019-05-07T00:02:28.473Z,7.90
2019-05-07T00:05:02.644Z,7.90
2019-05-07T00:07:36.505Z,7.80
2019-05-07T00:10:10.092Z,7.80
2019-05-07T00:12:43.526Z,7.80
2019-05-07T00:15:17.017Z,7.80
2019-05-07T00:17:52.282Z,7.80
2019-05-07T00:20:25.592Z,7.80
2019-05-07T00:22:59.029Z,7.90
2019-05-07T00:25:32.943Z,8.00
2019-05-07T00:28:06.568Z,8.00
2019-05-07T00:30:42.255Z,8.00
2019-05-07T00:33:15.149Z,8.00
2019-05-07T00:35:50.197Z,8.00
2019-05-07T00:38:25.278Z,8.00
2019-05-07T00:41:12.238Z,8.00
2019-05-07T00:43:46.537Z,8.00
2019-05-07T00:46:22.614Z,7.90
2019-05-07T00:48:56.381Z,7.90
2019-05-07T00:51:33.834Z,7.90
2019-05-07T00:54:07.706Z,7.90
2019-05-07T00:56:42.877Z,8.00
2019-05-07T00:59:16.346Z,8.00
2019-05-07T01:01:49.757Z,8.00
2019-05-07T01:04:23.183Z,8.00
2019-05-07T01:06:56.764Z,8.00
2019-05-07T01:09:32.405Z,8.00
2019-05-07T01:12:06.075Z,8.00
2019-05-07T01:14:41.861Z,8.00
2019-05-07T01:17:14.657Z,8.00
2019-05-07T01:19:48.084Z,8.10
2019-05-07T01:22:22.212Z,8.10
2019-05-07T01:24:56.490Z,8.20
2019-05-07T01:27:31.990Z,8.20
2019-05-07T01:30:05.761Z,8.20
2019-05-07T01:32:42.506Z,8.20
2019-05-07T01:35:22.319Z,8.20
2019-05-07T01:37:55.296Z,8.20
2019-05-07T01:40:28.733Z,8.20
2019-05-07T01:43:02.621Z,8.20
2019-05-07T01:45:46.491Z,8.20
2019-05-07T01:48:13.312Z,8.20
2019-05-07T01:50:46.742Z,8.20
2019-05-07T01:53:20.163Z,8.20
2019-05-07T01:55:53.680Z,8.20
2019-05-07T01:58:27.097Z,8.10
2019-05-07T02:01:02.644Z,8.10
2019-05-07T02:03:37.300Z,8.10
2019-05-07T02:06:15.297Z,8.10
2019-05-07T02:08:50.351Z,8.10
2019-05-07T02:11:25.413Z,8.10
2019-05-07T02:13:59.099Z,8.20
2019-05-07T02:16:32.735Z,8.20
2019-05-07T02:19:06.427Z,8.20
2019-05-07T02:21:42.159Z,8.20
2019-05-07T02:24:15.005Z,8.20
2019-05-07T02:26:48.430Z,8.20
2019-05-07T02:29:22.800Z,8.20
2019-05-07T02:31:56.554Z,8.20
2019-05-07T02:34:29.972Z,8.20
2019-05-07T02:37:05.416Z,8.20
2019-05-07T02:39:46.289Z,8.10
2019-05-07T02:42:19.714Z,8.10
2019-05-07T02:45:13.384Z,8.10
2019-05-07T02:47:46.046Z,8.10
2019-05-07T02:50:36.325Z,8.10
2019-05-07T02:53:17.542Z,8.00
2019-05-07T02:55:56.782Z,8.10
2019-05-07T02:58:32.882Z,8.10
2019-05-07T03:01:05.459Z,8.10
2019-05-07T03:03:38.885Z,8.10
2019-05-07T03:06:13.697Z,8.00
2019-05-07T03:08:47.446Z,8.00
2019-05-07T03:11:22.962Z,7.90
2019-05-07T03:13:56.182Z,7.90
2019-05-07T03:16:39.746Z,7.90
2019-05-07T03:19:05.337Z,7.90
2019-05-07T03:21:54.901Z,7.90
2019-05-07T03:24:34.316Z,7.90
2019-05-07T03:27:08.185Z,7.90
2019-05-07T03:29:44.141Z,7.90
2019-05-07T03:32:37.780Z,7.90
2019-05-07T03:35:27.197Z,7.90
2019-05-07T03:37:59.424Z,7.80
2019-05-07T03:40:35.733Z,7.80
2019-05-07T03:43:09.348Z,7.80
2019-05-07T03:45:54.088Z,7.90
2019-05-07T03:48:29.353Z,7.90
2019-05-07T03:51:03.599Z,7.90
2019-05-07T03:53:37.389Z,7.90
2019-05-07T03:56:13.067Z,7.90
2019-05-07T03:58:45.960Z,7.90
2019-05-07T04:01:19.379Z,7.90
2019-05-07T04:03:53.397Z,7.90
2019-05-07T04:06:27.172Z,7.90
2019-05-07T04:09:03.365Z,7.80
2019-05-07T04:11:35.746Z,7.80
2019-05-07T04:14:09.171Z,7.80
2019-05-07T04:16:44.097Z,7.90
2019-05-07T04:19:17.741Z,7.90
2019-05-07T04:21:53.356Z,7.90
2019-05-07T04:24:45.678Z,7.90
2019-05-07T04:27:23.668Z,7.90
2019-05-07T04:29:55.956Z,7.90
2019-05-07T04:32:33.260Z,7.90
2019-05-07T04:35:16.878Z,7.80
2019-05-07T04:37:53.140Z,7.80
2019-05-07T04:40:25.465Z,7.80
2019-05-07T04:42:58.887Z,7.80
2019-05-07T04:45:33.763Z,7.80
2019-05-07T04:48:26.797Z,7.80
2019-05-07T04:51:03.547Z,7.80
2019-05-07T04:53:37.006Z,7.90
2019-05-07T04:56:13.844Z,7.90
2019-05-07T04:58:45.586Z,7.80
2019-05-07T05:01:23.220Z,7.80
2019-05-07T05:03:55.797Z,7.80
2019-05-07T05:06:29.234Z,7.80
2019-05-07T05:09:03.190Z,7.80
2019-05-07T05:11:36.908Z,7.90
2019-05-07T05:14:13.446Z,7.90
2019-05-07T05:16:45.479Z,8.00
2019-05-07T05:19:18.913Z,8.00
2019-05-07T05:21:53.961Z,8.10
2019-05-07T05:24:32.917Z,8.10
2019-05-07T05:27:06.569Z,8.20
2019-05-07T05:29:40.368Z,8.20
2019-05-07T05:32:13.964Z,8.30
2019-05-07T05:34:47.407Z,8.30
2019-05-07T05:37:22.661Z,8.30
2019-05-07T05:40:05.670Z,8.30
2019-05-07T05:42:33.088Z,8.30
2019-05-07T05:45:09.146Z,8.30
2019-05-07T05:47:44.890Z,8.40
2019-05-07T05:50:18.148Z,8.50
2019-05-07T05:53:05.312Z,8.60
2019-05-07T05:55:39.168Z,8.60
2019-05-07T05:58:26.010Z,8.70
2019-05-07T06:01:02.568Z,8.90
2019-05-07T06:03:42.912Z,9.00
2019-05-07T06:06:23.340Z,9.10
2019-05-07T06:09:14.944Z,9.20
2019-05-07T06:11:52.011Z,9.30
2019-05-07T06:14:35.625Z,9.40
2019-05-07T06:17:12.813Z,9.40
2019-05-07T06:19:59.448Z,9.60
2019-05-07T06:22:42.447Z,9.60
2019-05-07T06:25:24.278Z,9.70
2019-05-07T06:27:55.543Z,9.80
2019-05-07T06:30:29.072Z,9.90
2019-05-07T06:33:02.894Z,10.00
2019-05-07T06:35:36.633Z,10.10
2019-05-07T06:38:12.416Z,10.10
2019-05-07T06:40:48.143Z,10.20
2019-05-07T06:43:23.233Z,10.30
2019-05-07T06:46:01.887Z,10.40
2019-05-07T06:48:42.403Z,10.60
2019-05-07T06:51:12.606Z,10.70
2019-05-07T06:53:46.240Z,10.80
2019-05-07T06:56:19.672Z,10.90
2019-05-07T06:58:57.488Z,11.10
2019-05-07T07:01:32.608Z,11.20
2019-05-07T07:04:07.680Z,11.20
2019-05-07T07:06:48.483Z,11.40
2019-05-07T07:09:29.346Z,11.50
2019-05-07T07:12:25.856Z,11.50
2019-05-07T07:14:58.160Z,11.40
2019-05-07T07:17:32.616Z,11.40
2019-05-07T07:20:07.060Z,11.50
2019-05-07T07:22:42.435Z,11.50
2019-05-07T07:25:15.708Z,11.60
2019-05-07T07:27:49.145Z,11.70
2019-05-07T07:30:27.200Z,11.80
2019-05-07T07:33:02.864Z,11.90
2019-05-07T07:35:36.354Z,12.10
2019-05-07T07:38:27.633Z,12.20
2019-05-07T07:41:12.596Z,12.20
2019-05-07T07:43:45.746Z,12.20
2019-05-07T07:46:19.169Z,12.30
2019-05-07T07:49:06.653Z,12.30
2019-05-07T07:51:38.885Z,12.40
2019-05-07T07:54:03.270Z,12.60
2019-05-07T07:56:49.985Z,12.60
2019-05-07T07:59:22.169Z,12.70
2019-05-07T08:02:06.024Z,12.70
2019-05-07T08:04:39.460Z,12.70
2019-05-07T08:07:12.885Z,12.60
2019-05-07T08:09:46.329Z,12.60
2019-05-07T08:12:21.507Z,12.60
2019-05-07T08:15:11.125Z,12.50
2019-05-07T08:17:32.514Z,12.50
2019-05-07T08:20:07.420Z,12.50
2019-05-07T08:22:42.275Z,12.50
2019-05-07T08:25:16.477Z,12.50
2019-05-07T08:27:49.903Z,12.50
2019-05-07T08:30:24.981Z,12.50
2019-05-07T08:33:02.033Z,12.50
2019-05-07T08:35:41.777Z,12.50
2019-05-07T08:38:15.321Z,12.50
2019-05-07T08:40:49.130Z,12.60
2019-05-07T08:43:22.655Z,12.70
2019-05-07T08:46:16.000Z,12.70
2019-05-07T08:48:52.812Z,12.70
2019-05-07T08:51:25.972Z,12.80
2019-05-07T08:54:05.348Z,13.00
2019-05-07T08:56:39.332Z,13.10
2019-05-07T08:59:12.776Z,13.20
2019-05-07T09:01:46.207Z,13.30
2019-05-07T09:04:21.866Z,13.40
2019-05-07T09:06:54.871Z,13.50
2019-05-07T09:09:28.293Z,13.60
2019-05-07T09:12:02.981Z,13.60
2019-05-07T09:14:37.032Z,13.70
2019-05-07T09:17:12.528Z,13.60
2019-05-07T09:19:51.163Z,13.50
2019-05-07T09:22:22.780Z,13.50
2019-05-07T09:24:55.944Z,13.60
2019-05-07T09:27:37.375Z,13.60
2019-05-07T09:30:16.931Z,13.60
2019-05-07T09:32:52.355Z,13.60
2019-05-07T09:35:32.888Z,13.60
2019-05-07T09:38:06.516Z,13.60
2019-05-07T09:40:42.008Z,13.60
2019-05-07T09:43:15.099Z,13.60
2019-05-07T09:45:48.519Z,13.60
2019-05-07T09:48:22.209Z,13.70
2019-05-07T09:50:56.044Z,13.70
2019-05-07T09:53:29.475Z,13.80
2019-05-07T09:56:02.927Z,13.80
2019-05-07T09:58:39.052Z,13.90
2019-05-07T10:01:12.527Z,13.90
2019-05-07T10:03:46.532Z,14.00
2019-05-07T10:06:20.287Z,14.00
2019-05-07T10:08:53.794Z,14.00
2019-05-07T10:11:34.771Z,14.00
2019-05-07T10:14:12.681Z,14.00
2019-05-07T10:17:03.352Z,14.10
2019-05-07T10:19:36.856Z,14.20
2019-05-07T10:22:12.462Z,14.30
2019-05-07T10:24:45.608Z,14.30
2019-05-07T10:27:19.300Z,14.40
2019-05-07T10:29:53.070Z,14.40
2019-05-07T10:32:26.828Z,14.30
2019-05-07T10:35:02.161Z,14.20
2019-05-07T10:37:35.484Z,14.20
2019-05-07T10:40:12.283Z,14.20
2019-05-07T10:42:46.348Z,14.20
2019-05-07T10:45:33.760Z,14.20
2019-05-07T10:48:17.997Z,14.20
2019-05-07T10:50:59.108Z,14.30
2019-05-07T10:53:32.523Z,14.40
2019-05-07T10:56:05.955Z,14.50
2019-05-07T10:58:41.626Z,14.60
2019-05-07T11:01:17.045Z,14.80
2019-05-07T11:03:51.702Z,14.90
2019-05-07T11:06:25.400Z,15.00
2019-05-07T11:08:58.812Z,14.90
2019-05-07T11:11:32.253Z,14.80
2019-05-07T11:14:05.753Z,14.80
2019-05-07T11:16:42.979Z,14.80
2019-05-07T11:19:18.773Z,14.80
2019-05-07T11:21:52.098Z,14.80
2019-05-07T11:24:25.872Z,14.80
2019-05-07T11:26:59.304Z,14.80
2019-05-07T11:29:33.859Z,14.90
2019-05-07T11:32:07.879Z,14.90
2019-05-07T11:34:42.935Z,14.90
2019-05-07T11:37:16.377Z,14.90
2019-05-07T11:39:49.799Z,14.90
2019-05-07T11:42:24.851Z,14.90
2019-05-07T11:44:58.280Z,14.80
2019-05-07T11:47:33.396Z,14.80
2019-05-07T11:50:24.854Z,14.70
2019-05-07T11:52:59.948Z,14.70
2019-05-07T11:55:33.383Z,14.70
2019-05-07T11:58:06.804Z,14.70
2019-05-07T12:00:42.640Z,14.70
2019-05-07T12:03:16.271Z,14.60
2019-05-07T12:05:49.712Z,14.50
2019-05-07T12:08:36.527Z,14.50
2019-05-07T12:10:58.279Z,14.50
2019-05-07T12:13:32.276Z,14.50
2019-05-07T12:16:06.113Z,14.40
2019-05-07T12:18:39.538Z,14.40
2019-05-07T12:21:20.247Z,14.40
2019-05-07T12:23:48.104Z,14.50
2019-05-07T12:26:22.281Z,14.60
2019-05-07T12:28:55.902Z,14.60
2019-05-07T12:31:42.845Z,14.60
2019-05-07T12:34:20.325Z,14.70
2019-05-07T12:36:53.751Z,14.80
2019-05-07T12:39:27.241Z,14.80
2019-05-07T12:42:00.679Z,14.90
2019-05-07T12:44:34.165Z,15.00
2019-05-07T12:47:07.595Z,15.10
2019-05-07T12:49:42.831Z,15.20
2019-05-07T12:52:17.803Z,15.40
2019-05-07T12:54:52.864Z,15.60
2019-05-07T12:57:26.326Z,15.80
2019-05-07T13:00:02.071Z,15.80
2019-05-07T13:02:41.102Z,15.90
2019-05-07T13:05:12.387Z,16.00
2019-05-07T13:07:47.460Z,16.00
2019-05-07T13:10:21.888Z,15.90
2019-05-07T13:12:55.392Z,15.90
2019-05-07T13:15:28.808Z,15.90
2019-05-07T13:18:02.828Z,16.00
2019-05-07T13:20:37.131Z,16.10
2019-05-07T13:23:11.945Z,16.20
2019-05-07T13:25:45.551Z,16.30
2019-05-07T13:28:18.985Z,16.30
2019-05-07T13:30:52.656Z,16.30
2019-05-07T13:33:28.144Z,16.30
2019-05-07T13:36:02.456Z,16.30
2019-05-07T13:38:37.896Z,16.30
2019-05-07T13:41:22.804Z,16.20
2019-05-07T13:43:58.516Z,16.10
2019-05-07T13:46:33.659Z,16.00
2019-05-07T13:49:07.272Z,16.00
2019-05-07T13:51:41.808Z,16.00
2019-05-07T13:54:15.439Z,16.00
2019-05-07T13:56:48.876Z,16.10
2019-05-07T13:59:22.690Z,16.00
2019-05-07T14:01:57.837Z,15.90
2019-05-07T14:04:32.616Z,15.90
2019-05-07T14:07:06.278Z,15.80
2019-05-07T14:09:41.875Z,15.70
2019-05-07T14:12:14.850Z,15.60
2019-05-07T14:14:48.523Z,15.50
2019-05-07T14:17:22.510Z,15.50
2019-05-07T14:19:56.036Z,15.50
2019-05-07T14:22:31.669Z,15.60
2019-05-07T14:25:05.951Z,15.60
2019-05-07T14:27:44.300Z,15.60
2019-05-07T14:30:18.863Z,15.70
2019-05-07T14:32:53.925Z,15.80
2019-05-07T14:35:32.347Z,15.80
2019-05-07T14:38:07.662Z,15.80
2019-05-07T14:40:42.675Z,15.80
2019-05-07T14:43:21.962Z,15.70
2019-05-07T14:45:55.787Z,15.60
2019-05-07T14:48:29.341Z,15.60
2019-05-07T14:51:02.768Z,15.50
2019-05-07T14:53:36.192Z,15.60
2019-05-07T14:56:09.687Z,15.60
2019-05-07T14:58:44.149Z,15.70
2019-05-07T15:01:17.584Z,15.70
2019-05-07T15:03:51.672Z,15.70
2019-05-07T15:06:25.816Z,15.70
2019-05-07T15:08:59.304Z,15.70
2019-05-07T15:11:32.808Z,15.70
2019-05-07T15:14:06.292Z,15.70
2019-05-07T15:16:42.419Z,15.70
2019-05-07T15:19:15.508Z,15.70
2019-05-07T15:21:51.789Z,15.80
2019-05-07T15:24:25.270Z,15.80
2019-05-07T15:26:58.711Z,15.90
2019-05-07T15:29:32.136Z,16.00
2019-05-07T15:32:07.203Z,16.00
2019-05-07T15:34:42.147Z,16.00
2019-05-07T15:37:15.742Z,16.00
2019-05-07T15:39:49.164Z,16.00
2019-05-07T15:42:22.595Z,15.90
2019-05-07T15:44:56.015Z,15.80
2019-05-07T15:47:31.778Z,15.90
2019-05-07T15:50:07.157Z,15.90
2019-05-07T15:52:57.690Z,15.90
2019-05-07T15:55:20.187Z,15.90
2019-05-07T15:57:53.867Z,16.00
2019-05-07T16:00:28.983Z,16.00
2019-05-07T16:03:12.672Z,16.00
2019-05-07T16:05:46.100Z,16.00
2019-05-07T16:08:22.553Z,16.00
2019-05-07T16:10:55.504Z,16.00
2019-05-07T16:13:33.526Z,16.00
2019-05-07T16:16:06.944Z,15.90
2019-05-07T16:18:44.885Z,15.80
2019-05-07T16:21:18.308Z,15.70
2019-05-07T16:23:54.594Z,15.70
2019-05-07T16:26:26.872Z,15.60
2019-05-07T16:29:04.360Z,15.60
2019-05-07T16:31:35.453Z,15.60
2019-05-07T16:34:08.884Z,15.50
2019-05-07T16:36:42.680Z,15.40
2019-05-07T16:39:16.109Z,15.40
2019-05-07T16:41:49.523Z,15.40
2019-05-07T16:44:22.958Z,15.40
2019-05-07T16:46:56.375Z,15.40
2019-05-07T16:49:31.728Z,15.40
2019-05-07T16:52:04.940Z,15.50
2019-05-07T16:54:38.399Z,15.70
2019-05-07T16:57:16.515Z,15.70
2019-05-07T16:59:51.658Z,15.70
2019-05-07T17:02:33.964Z,15.70
2019-05-07T17:05:12.166Z,15.70
2019-05-07T17:08:02.469Z,15.60
2019-05-07T17:10:36.374Z,15.60
2019-05-07T17:13:10.551Z,15.50
2019-05-07T17:15:55.508Z,15.40
2019-05-07T17:18:32.375Z,15.40
2019-05-07T17:21:05.452Z,15.40
2019-05-07T17:23:44.212Z,15.30
2019-05-07T17:26:14.501Z,15.30
2019-05-07T17:28:47.923Z,15.30
2019-05-07T17:31:22.909Z,15.20
2019-05-07T17:33:56.539Z,15.30
2019-05-07T17:36:29.966Z,15.20
2019-05-07T17:39:04.024Z,15.20
2019-05-07T17:41:37.456Z,15.20
2019-05-07T17:44:11.932Z,15.20
2019-05-07T17:46:46.202Z,15.20
2019-05-07T17:49:21.808Z,15.10
2019-05-07T17:51:55.191Z,15.10
2019-05-07T17:54:28.660Z,15.10
2019-05-07T17:57:02.196Z,15.10
2019-05-07T17:59:35.724Z,15.00
2019-05-07T18:02:10.780Z,15.00
2019-05-07T18:04:50.710Z,14.90
2019-05-07T18:07:20.816Z,14.90
2019-05-07T18:09:54.244Z,14.80
2019-05-07T18:12:27.659Z,14.80
2019-05-07T18:15:02.270Z,14.70
2019-05-07T18:17:55.387Z,14.70
2019-05-07T18:20:28.888Z,14.60
2019-05-07T18:23:02.672Z,14.60
2019-05-07T18:25:36.224Z,14.50
2019-05-07T18:28:12.220Z,14.40
2019-05-07T18:30:46.429Z,14.40
2019-05-07T18:33:24.252Z,14.30
2019-05-07T18:35:57.679Z,14.20
2019-05-07T18:38:32.930Z,14.10
2019-05-07T18:41:06.269Z,14.00
2019-05-07T18:43:41.981Z,14.00
2019-05-07T18:46:14.905Z,13.90
2019-05-07T18:48:48.322Z,13.80
2019-05-07T18:51:21.756Z,13.70
2019-05-07T18:53:55.187Z,13.70
2019-05-07T18:56:28.684Z,13.60
2019-05-07T18:59:02.208Z,13.50
2019-05-07T19:01:37.384Z,13.40
2019-05-07T19:04:12.861Z,13.40
2019-05-07T19:06:46.088Z,13.30
2019-05-07T19:09:19.512Z,13.20
2019-05-07T19:11:53.025Z,13.20
2019-05-07T19:14:26.442Z,13.10
2019-05-07T19:16:59.876Z,13.00
2019-05-07T19:19:33.295Z,13.00
2019-05-07T19:22:06.737Z,12.90
2019-05-07T19:24:45.426Z,12.80
2019-05-07T19:27:15.307Z,12.70
2019-05-07T19:29:48.719Z,12.60
2019-05-07T19:32:22.871Z,12.60
2019-05-07T19:34:56.724Z,12.50
2019-05-07T19:37:31.914Z,12.40
2019-05-07T19:40:08.180Z,12.40
2019-05-07T19:42:42.777Z,12.30
2019-05-07T19:45:18.947Z,12.30
2019-05-07T19:47:52.423Z,12.20
2019-05-07T19:50:25.902Z,12.10
2019-05-07T19:52:59.333Z,12.10
2019-05-07T19:55:34.403Z,12.00
2019-05-07T19:58:07.908Z,11.90
2019-05-07T20:00:42.102Z,11.80
2019-05-07T20:03:16.476Z,11.70
2019-05-07T20:05:49.967Z,11.70
2019-05-07T20:08:23.404Z,11.60
2019-05-07T20:10:58.468Z,11.60
2019-05-07T20:13:32.437Z,11.50
2019-05-07T20:16:07.709Z,11.40
2019-05-07T20:18:42.856Z,11.50
2019-05-07T20:21:16.317Z,11.40
2019-05-07T20:23:49.748Z,11.30
2019-05-07T20:26:23.401Z,11.30
2019-05-07T20:28:57.083Z,11.30
2019-05-07T20:31:32.835Z,11.20
2019-05-07T20:34:05.728Z,11.10
2019-05-07T20:36:39.142Z,11.10
2019-05-07T20:39:13.011Z,11.00
2019-05-07T20:41:46.457Z,10.90
2019-05-07T20:44:19.887Z,10.80
2019-05-07T20:46:53.689Z,10.80
2019-05-07T20:49:27.416Z,10.70
2019-05-07T20:52:00.832Z,10.60
2019-05-07T20:54:41.906Z,10.60
2019-05-07T20:57:16.911Z,10.50
2019-05-07T20:59:50.340Z,10.40
2019-05-07T21:02:23.775Z,10.40
2019-05-07T21:04:57.210Z,10.40
2019-05-07T21:07:32.664Z,10.30
2019-05-07T21:10:06.720Z,10.30
2019-05-07T21:12:42.260Z,10.30
2019-05-07T21:15:15.311Z,10.20
2019-05-07T21:17:48.760Z,10.30
2019-05-07T21:20:22.872Z,10.30
2019-05-07T21:22:56.507Z,10.30
2019-05-07T21:25:42.291Z,10.20
2019-05-07T21:28:05.091Z,10.20
2019-05-07T21:30:38.594Z,10.10
2019-05-07T21:33:12.159Z,10.10
2019-05-07T21:35:45.723Z,10.10
2019-05-07T21:38:19.144Z,10.00
2019-05-07T21:40:52.580Z,10.00
2019-05-07T21:43:26.000Z,10.00
2019-05-07T21:45:59.436Z,10.00
2019-05-07T21:48:32.980Z,10.00
2019-05-07T21:51:06.463Z,10.00
2019-05-07T21:53:44.208Z,10.00
2019-05-07T21:56:19.280Z,10.00
2019-05-07T21:59:03.255Z,10.00
2019-05-07T22:01:44.296Z,10.00
2019-05-07T22:04:17.783Z,10.00
2019-05-07T22:06:52.400Z,10.00
2019-05-07T22:09:26.187Z,9.90
2019-05-07T22:11:59.622Z,9.90
2019-05-07T22:14:33.031Z,9.80
2019-05-07T22:17:06.532Z,9.80
2019-05-07T22:19:39.950Z,9.80
2019-05-07T22:22:13.375Z,9.70
2019-05-07T22:24:49.394Z,9.70
2019-05-07T22:27:22.171Z,9.60
2019-05-07T22:29:55.936Z,9.60
2019-05-07T22:32:33.908Z,9.50
2019-05-07T22:35:11.943Z,9.50
2019-05-07T22:37:44.851Z,9.50
2019-05-07T22:40:18.263Z,9.50
2019-05-07T22:42:51.690Z,9.50
2019-05-07T22:45:25.099Z,9.50
2019-05-07T22:47:58.536Z,9.40
2019-05-07T22:50:33.162Z,9.50
2019-05-07T22:53:06.956Z,9.50
2019-05-07T22:55:41.877Z,9.50
2019-05-07T22:58:22.984Z,9.50
2019-05-07T23:00:58.041Z,9.50
2019-05-07T23:03:32.303Z,9.50
2019-05-07T23:06:08.899Z,9.50
2019-05-07T23:08:42.626Z,9.40
2019-05-07T23:11:16.227Z,9.50
2019-05-07T23:13:49.668Z,9.50
2019-05-07T23:16:23.310Z,9.50
2019-05-07T23:18:57.097Z,9.40
2019-05-07T23:21:31.994Z,9.40
2019-05-07T23:24:05.815Z,9.30
2019-05-07T23:26:48.193Z,9.30
2019-05-07T23:29:14.376Z,9.40
2019-05-07T23:31:47.791Z,9.30
2019-05-07T23:34:21.944Z,9.30
2019-05-07T23:36:55.915Z,9.20
2019-05-07T23:39:30.979Z,9.20
2019-05-07T23:42:12.674Z,9.20
2019-05-07T23:44:46.215Z,9.20
2019-05-07T23:47:19.632Z,9.20
2019-05-07T23:49:53.064Z,9.20
2019-05-07T23:52:26.484Z,9.10
2019-05-07T23:54:59.911Z,9.00
2019-05-07T23:57:33.332Z,9.00
